Check out our new BloomSky Weather System.

Active alerts


No alerts


Thunder radar  blitzortung!


Rain radar more information rain snow radar


Visit our other weather sites:

Template documentation
and downloads

And another site



Nearby METAR Reports

   
KIAH - Houston, TX
Updated: Sep 20 2017 3:53 am
Mostly Cloudy  
Mostly Cloudy  
   Wind: South 3.5 mph
Wind: South 3.5 mph
Temperature: 80.6°F
Heat Index: 86°F
Dew Point: 75.2°F
Humidity: 84%
Barometer: 29.89 inHg
Clouds: Mostly Cloudy
Visibility: 9 mi
Cloud details: Few Clouds 1100 ft,
Mostly Cloudy 25000 ft
KIAH 200853Z 18003KT 9SM FEW011 BKN250 27/24 A2989 RMK AO2 SLP121 T02670244 51001
KCLL - College Station, TX
Updated: Sep 20 2017 4:03 am
Overcast  
Overcast  
   Wind: South 5.8 mph
Wind: South 5.8 mph
Temperature: 78.8°F
Dew Point: 75.2°F
Humidity: 89%
Barometer: 29.9 inHg
Clouds: Overcast
Visibility: 9 mi
Cloud details: Mostly Cloudy 1100 ft,
Mostly Cloudy 1600 ft,
Overcast 2300 ft
KCLL 200903Z AUTO 18005KT 9SM BKN011 BKN016 OVC023 26/24 A2990 RMK AO2 T02610244
KBPT - Beaumont, TX
Updated: Sep 20 2017 3:53 am
Clear  
Clear  
   Wind: SSE 6.9 mph
Wind: SSE 6.9 mph
Temperature: 78.8°F
Dew Point: 75.2°F
Humidity: 89%
Barometer: 29.9 inHg
Clouds: Clear
Visibility: 10 mi
Cloud details: Clear ft
KBPT 200853Z AUTO 16006KT 10SM CLR 26/24 A2990 RMK AO2 SLP125 T02610244 56006

Script developed by  Saratoga-weather.org Adapted for the template by  Weerstation Leuven

You find our weather info also at:

UK Metoffice

WeatherCloud

Weather Underground

Mid-South Weather Network

AWEKAS

Citizen Weather Observer Program (CWOP)

HAMweather, WeatherForYou, PWS Weather

Equipment we use:

Weather-station
Davis Vantage Vue

Weather-program
Meteohub

Weather-server
Debian 7.9 x86 (Guest)

Provider
DreamHost

Davis Vantage Vue

Meteohub

Debian 7.9 x86 (Guest)

DreamHost